sensor_id;sensor_type;location;lat;lon;timestamp;pressure;altitude;pressure_sealevel;temperature;humidity
68859;BME280;55864;49.238;8.092;2024-03-02T00:01:03;98210.59;;;6.69;83.42
68859;BME280;55864;49.238;8.092;2024-03-02T00:03:04;98213.63;;;6.64;82.91
68859;BME280;55864;49.238;8.092;2024-03-02T00:05:05;98208.88;;;6.60;82.54
68859;BME280;55864;49.238;8.092;2024-03-02T00:07:06;98212.28;;;6.60;84.00
68859;BME280;55864;49.238;8.092;2024-03-02T00:09:09;98199.31;;;6.68;84.86
68859;BME280;55864;49.238;8.092;2024-03-02T00:11:11;98204.53;;;6.68;84.37
68859;BME280;55864;49.238;8.092;2024-03-02T00:13:12;98205.53;;;6.68;85.03
68859;BME280;55864;49.238;8.092;2024-03-02T00:15:34;98202.09;;;6.67;84.27
68859;BME280;55864;49.238;8.092;2024-03-02T00:17:39;98207.91;;;6.79;83.62
68859;BME280;55864;49.238;8.092;2024-03-02T00:19:40;98208.56;;;6.81;83.81
68859;BME280;55864;49.238;8.092;2024-03-02T00:21:40;98219.00;;;6.81;84.23
68859;BME280;55864;49.238;8.092;2024-03-02T00:23:41;98215.81;;;6.87;83.55
68859;BME280;55864;49.238;8.092;2024-03-02T00:25:43;98222.16;;;6.84;83.36
68859;BME280;55864;49.238;8.092;2024-03-02T00:27:47;98221.16;;;6.85;83.99
68859;BME280;55864;49.238;8.092;2024-03-02T00:29:48;98218.78;;;6.92;83.45
68859;BME280;55864;49.238;8.092;2024-03-02T00:31:50;98216.78;;;6.86;83.62
68859;BME280;55864;49.238;8.092;2024-03-02T00:33:50;98212.75;;;6.91;83.51
68859;BME280;55864;49.238;8.092;2024-03-02T00:35:50;98212.91;;;6.90;83.39
68859;BME280;55864;49.238;8.092;2024-03-02T00:37:51;98212.06;;;6.89;83.65
68859;BME280;55864;49.238;8.092;2024-03-02T00:39:52;98212.38;;;6.86;83.92
68859;BME280;55864;49.238;8.092;2024-03-02T00:41:52;98212.69;;;6.83;83.65
68859;BME280;55864;49.238;8.092;2024-03-02T00:43:59;98216.69;;;6.78;84.88
68859;BME280;55864;49.238;8.092;2024-03-02T00:46:00;98216.16;;;6.74;84.65
68859;BME280;55864;49.238;8.092;2024-03-02T00:48:03;98209.03;;;6.58;84.59
68859;BME280;55864;49.238;8.092;2024-03-02T00:50:05;98205.13;;;6.62;83.40
68859;BME280;55864;49.238;8.092;2024-03-02T00:52:06;98208.63;;;6.53;83.37
68859;BME280;55864;49.238;8.092;2024-03-02T00:54:08;98204.97;;;5.55;92.57
68859;BME280;55864;49.238;8.092;2024-03-02T00:56:11;98210.69;;;6.32;88.41
68859;BME280;55864;49.238;8.092;2024-03-02T00:58:11;98203.94;;;6.39;86.16
68859;BME280;55864;49.238;8.092;2024-03-02T01:00:13;98201.44;;;6.38;85.95
68859;BME280;55864;49.238;8.092;2024-03-02T01:02:14;98209.09;;;6.49;87.19
68859;BME280;55864;49.238;8.092;2024-03-02T01:04:16;98203.94;;;6.57;86.53
68859;BME280;55864;49.238;8.092;2024-03-02T01:06:16;98199.19;;;6.52;86.38
68859;BME280;55864;49.238;8.092;2024-03-02T01:08:17;98201.78;;;6.52;86.11
68859;BME280;55864;49.238;8.092;2024-03-02T01:10:18;98202.84;;;6.32;86.40
68859;BME280;55864;49.238;8.092;2024-03-02T01:12:18;98205.19;;;6.08;89.16
68859;BME280;55864;49.238;8.092;2024-03-02T01:14:19;98206.06;;;5.43;94.48
68859;BME280;55864;49.238;8.092;2024-03-02T01:16:19;98211.72;;;5.85;92.71
68859;BME280;55864;49.238;8.092;2024-03-02T01:18:20;98203.91;;;5.75;94.28
68859;BME280;55864;49.238;8.092;2024-03-02T01:20:22;98202.88;;;6.05;93.14
68859;BME280;55864;49.238;8.092;2024-03-02T01:22:23;98200.91;;;6.17;92.09
68859;BME280;55864;49.238;8.092;2024-03-02T01:24:23;98202.06;;;6.32;92.63
68859;BME280;55864;49.238;8.092;2024-03-02T01:26:24;98201.44;;;6.38;92.95
68859;BME280;55864;49.238;8.092;2024-03-02T01:28:24;98201.00;;;6.42;93.55
68859;BME280;55864;49.238;8.092;2024-03-02T01:30:25;98197.38;;;6.53;93.67
68859;BME280;55864;49.238;8.092;2024-03-02T01:32:25;98194.41;;;6.65;90.53
68859;BME280;55864;49.238;8.092;2024-03-02T01:34:26;98204.84;;;6.83;87.36
68859;BME280;55864;49.238;8.092;2024-03-02T01:36:27;98205.69;;;6.66;87.28
68859;BME280;55864;49.238;8.092;2024-03-02T01:38:28;98202.78;;;6.42;90.33
68859;BME280;55864;49.238;8.092;2024-03-02T01:40:28;98202.78;;;6.42;89.91
68859;BME280;55864;49.238;8.092;2024-03-02T01:42:29;98200.66;;;6.55;89.51
68859;BME280;55864;49.238;8.092;2024-03-02T01:44:29;98204.50;;;6.33;91.08
68859;BME280;55864;49.238;8.092;2024-03-02T01:46:30;98200.34;;;6.13;92.21
68859;BME280;55864;49.238;8.092;2024-03-02T01:48:31;98199.44;;;6.05;92.72
68859;BME280;55864;49.238;8.092;2024-03-02T01:50:32;98200.84;;;5.53;94.82
68859;BME280;55864;49.238;8.092;2024-03-02T01:52:34;98192.56;;;5.21;98.49
68859;BME280;55864;49.238;8.092;2024-03-02T01:54:35;98195.84;;;5.32;96.68
68859;BME280;55864;49.238;8.092;2024-03-02T01:56:36;98193.16;;;5.15;98.44
68859;BME280;55864;49.238;8.092;2024-03-02T01:58:36;98190.53;;;5.15;98.53
68859;BME280;55864;49.238;8.092;2024-03-02T02:00:37;98194.78;;;4.97;100.00
68859;BME280;55864;49.238;8.092;2024-03-02T02:02:37;98198.22;;;5.07;99.86
68859;BME280;55864;49.238;8.092;2024-03-02T02:04:38;98187.00;;;4.77;100.00
68859;BME280;55864;49.238;8.092;2024-03-02T02:06:38;98189.59;;;4.58;100.00
68859;BME280;55864;49.238;8.092;2024-03-02T02:08:40;98188.91;;;4.56;100.00
68859;BME280;55864;49.238;8.092;2024-03-02T02:10:41;98184.91;;;4.43;100.00
68859;BME280;55864;49.238;8.092;2024-03-02T02:12:42;98184.13;;;4.61;100.00
68859;BME280;55864;49.238;8.092;2024-03-02T02:14:47;98187.28;;;4.84;100.00
68859;BME280;55864;49.238;8.092;2024-03-02T02:16:47;98183.16;;;4.82;100.00
68859;BME280;55864;49.238;8.092;2024-03-02T02:18:48;98181.94;;;4.57;100.00
68859;BME280;55864;49.238;8.092;2024-03-02T02:20:48;98174.13;;;5.05;100.00
68859;BME280;55864;49.238;8.092;2024-03-02T02:23:00;98176.66;;;5.33;99.01
68859;BME280;55864;49.238;8.092;2024-03-02T02:25:01;98170.84;;;5.49;97.19
68859;BME280;55864;49.238;8.092;2024-03-02T02:27:01;98172.63;;;5.58;95.58
68859;BME280;55864;49.238;8.092;2024-03-02T02:29:02;98168.63;;;5.63;94.31
68859;BME280;55864;49.238;8.092;2024-03-02T02:31:03;98178.56;;;5.41;96.00
68859;BME280;55864;49.238;8.092;2024-03-02T02:33:03;98173.75;;;5.83;94.19
68859;BME280;55864;49.238;8.092;2024-03-02T02:35:05;98171.84;;;5.85;92.58
68859;BME280;55864;49.238;8.092;2024-03-02T02:37:05;98169.97;;;5.12;97.45
68859;BME280;55864;49.238;8.092;2024-03-02T02:39:09;98168.16;;;5.31;95.81
68859;BME280;55864;49.238;8.092;2024-03-02T02:41:10;98160.13;;;5.06;100.00
68859;BME280;55864;49.238;8.092;2024-03-02T02:43:12;98152.41;;;5.33;98.35
68859;BME280;55864;49.238;8.092;2024-03-02T02:45:12;98156.56;;;5.53;96.90
68859;BME280;55864;49.238;8.092;2024-03-02T02:47:13;98155.47;;;5.55;94.51
68859;BME280;55864;49.238;8.092;2024-03-02T02:49:13;98155.47;;;5.55;95.42
68859;BME280;55864;49.238;8.092;2024-03-02T02:51:14;98143.59;;;5.80;92.68
68859;BME280;55864;49.238;8.092;2024-03-02T02:53:14;98144.97;;;5.84;91.70
68859;BME280;55864;49.238;8.092;2024-03-02T02:55:16;98145.22;;;5.81;91.67
68859;BME280;55864;49.238;8.092;2024-03-02T02:57:17;98140.75;;;5.37;93.09
68859;BME280;55864;49.238;8.092;2024-03-02T02:59:17;98143.81;;;5.13;96.85
68859;BME280;55864;49.238;8.092;2024-03-02T03:01:17;98139.41;;;5.23;97.19
68859;BME280;55864;49.238;8.092;2024-03-02T03:03:18;98142.41;;;5.19;97.43
68859;BME280;55864;49.238;8.092;2024-03-02T03:05:19;98143.97;;;5.12;98.52
68859;BME280;55864;49.238;8.092;2024-03-02T03:07:20;98139.81;;;5.19;97.37
68859;BME280;55864;49.238;8.092;2024-03-02T03:09:20;98140.84;;;4.79;100.00
68859;BME280;55864;49.238;8.092;2024-03-02T03:11:22;98131.97;;;5.28;97.55
68859;BME280;55864;49.238;8.092;2024-03-02T03:13:23;98134.72;;;5.36;95.90
68859;BME280;55864;49.238;8.092;2024-03-02T03:15:23;98139.94;;;5.27;96.00
68859;BME280;55864;49.238;8.092;2024-03-02T03:17:24;98131.69;;;5.41;95.28
68859;BME280;55864;49.238;8.092;2024-03-02T03:19:24;98129.34;;;4.92;99.00
68859;BME280;55864;49.238;8.092;2024-03-02T03:21:25;98134.03;;;4.78;100.00
68859;BME280;55864;49.238;8.092;2024-03-02T03:23:25;98133.06;;;4.79;100.00
68859;BME280;55864;49.238;8.092;2024-03-02T03:25:26;98127.69;;;4.91;100.00
68859;BME280;55864;49.238;8.092;2024-03-02T03:27:27;98128.25;;;4.85;100.00
68859;BME280;55864;49.238;8.092;2024-03-02T03:29:28;98124.72;;;4.66;100.00
68859;BME280;55864;49.238;8.092;2024-03-02T03:31:29;98134.81;;;4.79;100.00
68859;BME280;55864;49.238;8.092;2024-03-02T03:33:29;98130.44;;;4.79;100.00
68859;BME280;55864;49.238;8.092;2024-03-02T03:35:29;98135.13;;;4.57;100.00
68859;BME280;55864;49.238;8.092;2024-03-02T03:37:30;98128.81;;;4.78;100.00
68859;BME280;55864;49.238;8.092;2024-03-02T03:39:30;98125.56;;;4.67;100.00
68859;BME280;55864;49.238;8.092;2024-03-02T03:41:31;98136.63;;;4.59;100.00
68859;BME280;55864;49.238;8.092;2024-03-02T03:43:33;98135.81;;;4.68;100.00
68859;BME280;55864;49.238;8.092;2024-03-02T03:45:33;98131.84;;;4.74;100.00
68859;BME280;55864;49.238;8.092;2024-03-02T03:47:34;98137.69;;;4.09;100.00
68859;BME280;55864;49.238;8.092;2024-03-02T03:49:34;98137.03;;;4.26;100.00
68859;BME280;55864;49.238;8.092;2024-03-02T03:51:35;98145.06;;;4.04;100.00
68859;BME280;55864;49.238;8.092;2024-03-02T03:53:35;98136.13;;;3.78;100.00
68859;BME280;55864;49.238;8.092;2024-03-02T03:55:36;98144.91;;;3.96;100.00
68859;BME280;55864;49.238;8.092;2024-03-02T03:57:36;98138.28;;;3.73;100.00
68859;BME280;55864;49.238;8.092;2024-03-02T03:59:38;98141.66;;;3.64;100.00
68859;BME280;55864;49.238;8.092;2024-03-02T04:01:39;98137.72;;;3.69;100.00
68859;BME280;55864;49.238;8.092;2024-03-02T04:03:39;98134.75;;;3.83;100.00
68859;BME280;55864;49.238;8.092;2024-03-02T04:05:40;98139.72;;;4.06;100.00
68859;BME280;55864;49.238;8.092;2024-03-02T04:07:40;98141.41;;;4.35;100.00
68859;BME280;55864;49.238;8.092;2024-03-02T04:09:41;98140.03;;;4.69;100.00
68859;BME280;55864;49.238;8.092;2024-03-02T04:11:41;98149.03;;;4.94;100.00
68859;BME280;55864;49.238;8.092;2024-03-02T04:13:42;98151.09;;;5.10;99.73
68859;BME280;55864;49.238;8.092;2024-03-02T04:15:44;98151.72;;;5.31;97.81
68859;BME280;55864;49.238;8.092;2024-03-02T04:17:44;98158.53;;;5.41;95.42
68859;BME280;55864;49.238;8.092;2024-03-02T04:19:45;98163.72;;;5.41;93.39
68859;BME280;55864;49.238;8.092;2024-03-02T04:21:45;98159.31;;;5.51;92.57
68859;BME280;55864;49.238;8.092;2024-03-02T04:23:46;98161.25;;;5.49;92.13
68859;BME280;55864;49.238;8.092;2024-03-02T04:25:46;98165.63;;;5.49;90.88
68859;BME280;55864;49.238;8.092;2024-03-02T04:27:47;98179.34;;;5.41;89.88
68859;BME280;55864;49.238;8.092;2024-03-02T04:29:47;98171.53;;;5.41;90.78
68859;BME280;55864;49.238;8.092;2024-03-02T04:31:49;98170.59;;;5.42;90.04
68859;BME280;55864;49.238;8.092;2024-03-02T04:33:50;98164.84;;;5.39;90.54
68859;BME280;55864;49.238;8.092;2024-03-02T04:35:50;98162.94;;;5.41;90.90
68859;BME280;55864;49.238;8.092;2024-03-02T04:37:51;98165.94;;;5.46;90.08
68859;BME280;55864;49.238;8.092;2024-03-02T04:39:51;98159.09;;;5.45;89.77
68859;BME280;55864;49.238;8.092;2024-03-02T04:41:51;98163.63;;;5.43;89.37
68859;BME280;55864;49.238;8.092;2024-03-02T04:43:52;98165.53;;;5.41;89.97
68859;BME280;55864;49.238;8.092;2024-03-02T04:45:52;98160.44;;;5.39;89.57
68859;BME280;55864;49.238;8.092;2024-03-02T04:47:54;98165.38;;;5.42;89.46
68859;BME280;55864;49.238;8.092;2024-03-02T04:49:55;98164.31;;;5.45;89.28
68859;BME280;55864;49.238;8.092;2024-03-02T04:51:56;98168.00;;;5.42;89.70
68859;BME280;55864;49.238;8.092;2024-03-02T04:53:56;98166.22;;;5.43;90.37
68859;BME280;55864;49.238;8.092;2024-03-02T04:55:57;98172.81;;;5.37;90.18
68859;BME280;55864;49.238;8.092;2024-03-02T04:57:57;98170.88;;;5.39;90.45
68859;BME280;55864;49.238;8.092;2024-03-02T04:59:58;98170.25;;;5.28;90.74
68859;BME280;55864;49.238;8.092;2024-03-02T05:01:58;98172.66;;;5.39;90.80
68859;BME280;55864;49.238;8.092;2024-03-02T05:04:00;98171.69;;;5.40;90.72
68859;BME280;55864;49.238;8.092;2024-03-02T05:06:00;98172.66;;;5.39;90.84
68859;BME280;55864;49.238;8.092;2024-03-02T05:08:01;98178.25;;;5.44;90.73
68859;BME280;55864;49.238;8.092;2024-03-02T05:10:02;98170.34;;;5.36;90.89
68859;BME280;55864;49.238;8.092;2024-03-02T05:12:02;98170.22;;;5.37;91.43
68859;BME280;55864;49.238;8.092;2024-03-02T05:14:03;98172.53;;;5.40;91.09
68859;BME280;55864;49.238;8.092;2024-03-02T05:16:03;98176.91;;;5.40;90.80
68859;BME280;55864;49.238;8.092;2024-03-02T05:18:04;98185.13;;;5.45;90.81
68859;BME280;55864;49.238;8.092;2024-03-02T05:20:08;98179.34;;;5.41;91.79
68859;BME280;55864;49.238;8.092;2024-03-02T05:22:08;98184.16;;;5.46;91.24
68859;BME280;55864;49.238;8.092;2024-03-02T05:24:09;98189.50;;;5.44;91.10
68859;BME280;55864;49.238;8.092;2024-03-02T05:26:09;98188.00;;;5.42;91.55
68859;BME280;55864;49.238;8.092;2024-03-02T05:28:10;98187.06;;;5.43;91.76
68859;BME280;55864;49.238;8.092;2024-03-02T05:30:11;98183.22;;;5.47;91.00
68859;BME280;55864;49.238;8.092;2024-03-02T05:32:12;98185.66;;;5.48;91.32
68859;BME280;55864;49.238;8.092;2024-03-02T05:34:12;98189.91;;;5.49;90.04
68859;BME280;55864;49.238;8.092;2024-03-02T05:36:14;98184.16;;;5.46;91.06
68859;BME280;55864;49.238;8.092;2024-03-02T05:38:15;98181.56;;;5.46;90.65
68859;BME280;55864;49.238;8.092;2024-03-02T05:40:15;98182.09;;;5.49;93.33
68859;BME280;55864;49.238;8.092;2024-03-02T05:42:16;98176.16;;;5.57;93.32
68859;BME280;55864;49.238;8.092;2024-03-02T05:44:16;98187.66;;;5.64;94.13
68859;BME280;55864;49.238;8.092;2024-03-02T05:46:17;98188.50;;;5.55;95.46
68859;BME280;55864;49.238;8.092;2024-03-02T05:48:17;98191.59;;;5.68;93.75
68859;BME280;55864;49.238;8.092;2024-03-02T05:50:17;98187.06;;;5.70;92.60
68859;BME280;55864;49.238;8.092;2024-03-02T05:52:19;98182.97;;;5.77;93.07
68859;BME280;55864;49.238;8.092;2024-03-02T05:54:20;98184.06;;;5.84;92.00
68859;BME280;55864;49.238;8.092;2024-03-02T05:56:20;98184.28;;;5.91;91.39
68859;BME280;55864;49.238;8.092;2024-03-02T05:58:21;98190.78;;;5.87;92.46
68859;BME280;55864;49.238;8.092;2024-03-02T06:00:22;98179.91;;;5.91;91.98
68859;BME280;55864;49.238;8.092;2024-03-02T06:02:22;98184.97;;;5.93;91.68
68859;BME280;55864;49.238;8.092;2024-03-02T06:04:23;98184.69;;;5.96;91.51
68859;BME280;55864;49.238;8.092;2024-03-02T06:06:23;98189.78;;;5.88;92.65
68859;BME280;55864;49.238;8.092;2024-03-02T06:08:25;98188.69;;;5.90;92.83
68859;BME280;55864;49.238;8.092;2024-03-02T06:10:25;98185.94;;;5.82;93.24
68859;BME280;55864;49.238;8.092;2024-03-02T06:12:26;98185.25;;;5.90;93.06
68859;BME280;55864;49.238;8.092;2024-03-02T06:14:26;98186.47;;;5.95;93.20
68859;BME280;55864;49.238;8.092;2024-03-02T06:16:27;98197.41;;;5.99;93.95
68859;BME280;55864;49.238;8.092;2024-03-02T06:18:27;98195.19;;;6.04;92.18
68859;BME280;55864;49.238;8.092;2024-03-02T06:20:28;98192.72;;;6.02;93.76
68859;BME280;55864;49.238;8.092;2024-03-02T06:22:28;98203.84;;;6.04;94.46
68859;BME280;55864;49.238;8.092;2024-03-02T06:24:30;98200.22;;;6.15;92.79
68859;BME280;55864;49.238;8.092;2024-03-02T06:26:31;98200.97;;;6.07;93.49
68859;BME280;55864;49.238;8.092;2024-03-02T06:28:31;98200.06;;;6.16;93.04
68859;BME280;55864;49.238;8.092;2024-03-02T06:30:32;98200.84;;;6.26;91.02
68859;BME280;55864;49.238;8.092;2024-03-02T06:32:32;98208.81;;;6.25;91.79
68859;BME280;55864;49.238;8.092;2024-03-02T06:34:33;98209.00;;;6.14;92.97
68859;BME280;55864;49.238;8.092;2024-03-02T06:36:33;98207.75;;;6.18;92.11
68859;BME280;55864;49.238;8.092;2024-03-02T06:38:34;98202.78;;;6.24;92.47
68859;BME280;55864;49.238;8.092;2024-03-02T06:40:35;98210.31;;;6.27;91.75
68859;BME280;55864;49.238;8.092;2024-03-02T06:42:36;98203.88;;;6.22;90.42
68859;BME280;55864;49.238;8.092;2024-03-02T06:44:36;98197.31;;;6.18;89.58
68859;BME280;55864;49.238;8.092;2024-03-02T06:46:37;98200.06;;;6.16;89.09
68859;BME280;55864;49.238;8.092;2024-03-02T06:48:37;98196.53;;;6.08;89.14
68859;BME280;55864;49.238;8.092;2024-03-02T06:50:38;98198.88;;;6.11;89.58
68859;BME280;55864;49.238;8.092;2024-03-02T06:52:38;98206.13;;;6.34;100.00
68859;BME280;55864;49.238;8.092;2024-03-02T06:54:39;98206.72;;;6.73;100.00
68859;BME280;55864;49.238;8.092;2024-03-02T06:56:41;98201.50;;;6.91;96.27
68859;BME280;55864;49.238;8.092;2024-03-02T06:58:41;98207.16;;;6.86;93.30
68859;BME280;55864;49.238;8.092;2024-03-02T07:00:42;98197.31;;;6.80;91.31
68859;BME280;55864;49.238;8.092;2024-03-02T07:02:42;98201.25;;;6.66;90.19
68859;BME280;55864;49.238;8.092;2024-03-02T07:04:43;98203.25;;;6.55;89.28
68859;BME280;55864;49.238;8.092;2024-03-02T07:06:44;98205.50;;;6.50;89.87
68859;BME280;55864;49.238;8.092;2024-03-02T07:08:44;98211.28;;;6.44;90.54
68859;BME280;55864;49.238;8.092;2024-03-02T07:10:44;98200.84;;;5.99;95.24
68859;BME280;55864;49.238;8.092;2024-03-02T07:12:46;98203.75;;;6.23;93.76
68859;BME280;55864;49.238;8.092;2024-03-02T07:14:47;98209.03;;;6.04;96.65
68859;BME280;55864;49.238;8.092;2024-03-02T07:16:47;98205.50;;;6.05;95.93
68859;BME280;55864;49.238;8.092;2024-03-02T07:18:48;98211.94;;;5.55;100.00
68859;BME280;55864;49.238;8.092;2024-03-02T07:20:48;98209.13;;;5.39;100.00
68859;BME280;55864;49.238;8.092;2024-03-02T07:22:49;98213.00;;;5.06;100.00
68859;BME280;55864;49.238;8.092;2024-03-02T07:24:50;98214.66;;;4.88;100.00
68859;BME280;55864;49.238;8.092;2024-03-02T07:26:50;98212.84;;;5.17;100.00
68859;BME280;55864;49.238;8.092;2024-03-02T07:28:52;98212.13;;;5.44;100.00
68859;BME280;55864;49.238;8.092;2024-03-02T07:30:57;98209.97;;;5.30;100.00
68859;BME280;55864;49.238;8.092;2024-03-02T07:32:58;98215.59;;;5.25;100.00
68859;BME280;55864;49.238;8.092;2024-03-02T07:34:58;98215.34;;;5.65;100.00
68859;BME280;55864;49.238;8.092;2024-03-02T07:36:59;98213.50;;;5.94;100.00
68859;BME280;55864;49.238;8.092;2024-03-02T07:39:00;98213.00;;;6.35;100.00
68859;BME280;55864;49.238;8.092;2024-03-02T07:41:00;98219.13;;;6.44;100.00
68859;BME280;55864;49.238;8.092;2024-03-02T07:43:01;98220.25;;;6.14;100.00
68859;BME280;55864;49.238;8.092;2024-03-02T07:45:03;98222.03;;;6.14;100.00
68859;BME280;55864;49.238;8.092;2024-03-02T07:47:04;98224.19;;;6.45;98.89
68859;BME280;55864;49.238;8.092;2024-03-02T07:49:05;98212.94;;;6.62;97.87
68859;BME280;55864;49.238;8.092;2024-03-02T07:51:05;98223.78;;;6.68;96.90
68859;BME280;55864;49.238;8.092;2024-03-02T07:53:06;98215.81;;;6.69;96.47
68859;BME280;55864;49.238;8.092;2024-03-02T07:55:07;98227.09;;;6.42;97.48
68859;BME280;55864;49.238;8.092;2024-03-02T07:57:07;98221.91;;;6.60;97.54
68859;BME280;55864;49.238;8.092;2024-03-02T07:59:08;98220.78;;;6.80;96.97
68859;BME280;55864;49.238;8.092;2024-03-02T08:01:10;98230.84;;;6.93;95.56
68859;BME280;55864;49.238;8.092;2024-03-02T08:03:11;98229.38;;;7.08;94.22
68859;BME280;55864;49.238;8.092;2024-03-02T08:05:11;98225.03;;;6.99;95.10
68859;BME280;55864;49.238;8.092;2024-03-02T08:07:12;98229.44;;;7.16;97.66
68859;BME280;55864;49.238;8.092;2024-03-02T08:09:13;98225.53;;;7.20;96.33
68859;BME280;55864;49.238;8.092;2024-03-02T08:11:13;98222.59;;;7.40;94.78
68859;BME280;55864;49.238;8.092;2024-03-02T08:13:13;98225.19;;;7.58;94.58
68859;BME280;55864;49.238;8.092;2024-03-02T08:15:14;98222.03;;;7.80;90.51
68859;BME280;55864;49.238;8.092;2024-03-02T08:17:16;98236.97;;;7.62;95.33
68859;BME280;55864;49.238;8.092;2024-03-02T08:19:17;98233.25;;;7.73;92.48
68859;BME280;55864;49.238;8.092;2024-03-02T08:21:17;98230.66;;;7.98;89.90
68859;BME280;55864;49.238;8.092;2024-03-02T08:23:18;98237.88;;;8.12;90.21
68859;BME280;55864;49.238;8.092;2024-03-02T08:25:18;98234.03;;;7.65;89.77
68859;BME280;55864;49.238;8.092;2024-03-02T08:27:19;98241.94;;;7.73;92.40
68859;BME280;55864;49.238;8.092;2024-03-02T08:29:19;98230.94;;;8.29;86.65
68859;BME280;55864;49.238;8.092;2024-03-02T08:31:20;98232.28;;;8.33;86.90
68859;BME280;55864;49.238;8.092;2024-03-02T08:33:22;98234.09;;;8.40;86.76
68859;BME280;55864;49.238;8.092;2024-03-02T08:35:22;98235.44;;;8.44;84.59
68859;BME280;55864;49.238;8.092;2024-03-02T08:37:23;98234.28;;;8.39;85.70
68859;BME280;55864;49.238;8.092;2024-03-02T08:39:23;98233.59;;;8.37;86.28
68859;BME280;55864;49.238;8.092;2024-03-02T08:41:24;98238.03;;;8.44;85.26
68859;BME280;55864;49.238;8.092;2024-03-02T08:43:25;98238.34;;;8.33;84.95
68859;BME280;55864;49.238;8.092;2024-03-02T08:45:25;98235.38;;;7.95;86.93
68859;BME280;55864;49.238;8.092;2024-03-02T08:47:26;98229.03;;;8.39;85.87
68859;BME280;55864;49.238;8.092;2024-03-02T08:49:28;98239.94;;;8.68;85.26
68859;BME280;55864;49.238;8.092;2024-03-02T08:51:28;98227.53;;;8.94;83.46
68859;BME280;55864;49.238;8.092;2024-03-02T08:53:29;98227.03;;;8.91;84.20
68859;BME280;55864;49.238;8.092;2024-03-02T08:55:29;98229.31;;;9.18;81.60
68859;BME280;55864;49.238;8.092;2024-03-02T08:57:30;98221.13;;;9.37;80.36
68859;BME280;55864;49.238;8.092;2024-03-02T08:59:30;98230.78;;;9.69;83.43
68859;BME280;55864;49.238;8.092;2024-03-02T09:01:31;98227.09;;;9.94;77.84
68859;BME280;55864;49.238;8.092;2024-03-02T09:03:32;98218.44;;;9.93;75.76
68859;BME280;55864;49.238;8.092;2024-03-02T09:05:34;98224.31;;;10.11;74.41
68859;BME280;55864;49.238;8.092;2024-03-02T09:07:35;98225.19;;;9.88;75.69
68859;BME280;55864;49.238;8.092;2024-03-02T09:09:35;98221.19;;;10.08;73.65
68859;BME280;55864;49.238;8.092;2024-03-02T09:11:36;98219.28;;;10.40;72.11
68859;BME280;55864;49.238;8.092;2024-03-02T09:13:37;98221.38;;;10.45;71.90
68859;BME280;55864;49.238;8.092;2024-03-02T09:15:38;98218.25;;;10.50;71.27
68859;BME280;55864;49.238;8.092;2024-03-02T09:17:38;98214.78;;;10.80;71.13
68859;BME280;55864;49.238;8.092;2024-03-02T09:19:39;98227.09;;;10.79;70.04
68859;BME280;55864;49.238;8.092;2024-03-02T09:21:41;98224.47;;;10.79;70.25
68859;BME280;55864;49.238;8.092;2024-03-02T09:23:42;98227.34;;;9.60;75.00
68859;BME280;55864;49.238;8.092;2024-03-02T09:25:42;98228.88;;;10.17;73.16
68859;BME280;55864;49.238;8.092;2024-03-02T09:27:43;98231.53;;;10.09;74.24
68859;BME280;55864;49.238;8.092;2024-03-02T09:29:43;98225.47;;;10.01;74.36
68859;BME280;55864;49.238;8.092;2024-03-02T09:31:44;98224.63;;;10.08;74.81
68859;BME280;55864;49.238;8.092;2024-03-02T09:33:44;98217.75;;;9.99;74.07
68859;BME280;55864;49.238;8.092;2024-03-02T09:35:45;98217.81;;;9.83;75.38
68859;BME280;55864;49.238;8.092;2024-03-02T09:37:46;98221.91;;;9.78;76.74
68859;BME280;55864;49.238;8.092;2024-03-02T09:39:47;98226.19;;;9.71;77.37
68859;BME280;55864;49.238;8.092;2024-03-02T09:41:48;98222.59;;;9.72;76.22
68859;BME280;55864;49.238;8.092;2024-03-02T09:43:49;98218.47;;;9.85;76.75
68859;BME280;55864;49.238;8.092;2024-03-02T09:45:50;98219.25;;;9.94;75.51
68859;BME280;55864;49.238;8.092;2024-03-02T09:47:51;98215.66;;;9.87;75.50
68859;BME280;55864;49.238;8.092;2024-03-02T09:49:52;98216.66;;;9.86;75.82
68859;BME280;55864;49.238;8.092;2024-03-02T09:51:52;98219.56;;;9.99;76.14
68859;BME280;55864;49.238;8.092;2024-03-02T09:53:55;98210.22;;;9.96;77.19
68859;BME280;55864;49.238;8.092;2024-03-02T09:55:56;98211.34;;;10.18;75.83
68859;BME280;55864;49.238;8.092;2024-03-02T09:57:56;98218.91;;;10.05;77.16
68859;BME280;55864;49.238;8.092;2024-03-02T09:59:57;98216.19;;;9.74;78.14
68859;BME280;55864;49.238;8.092;2024-03-02T10:01:58;98215.63;;;10.03;76.96
68859;BME280;55864;49.238;8.092;2024-03-02T10:03:59;98212.69;;;10.45;74.69
68859;BME280;55864;49.238;8.092;2024-03-02T10:06:18;98219.56;;;10.46;75.71
68859;BME280;55864;49.238;8.092;2024-03-02T10:08:19;98209.81;;;10.85;72.61
68859;BME280;55864;49.238;8.092;2024-03-02T10:10:21;98220.50;;;11.06;72.73
68859;BME280;55864;49.238;8.092;2024-03-02T10:12:22;98219.66;;;11.28;71.14
68859;BME280;55864;49.238;8.092;2024-03-02T10:14:22;98216.47;;;11.55;71.26
68859;BME280;55864;49.238;8.092;2024-03-02T10:16:23;98216.94;;;11.59;68.47
68859;BME280;55864;49.238;8.092;2024-03-02T10:18:26;98217.81;;;11.14;70.37
68859;BME280;55864;49.238;8.092;2024-03-02T10:20:27;98210.09;;;11.35;69.55
68859;BME280;55864;49.238;8.092;2024-03-02T10:22:28;98207.59;;;11.19;71.97
68859;BME280;55864;49.238;8.092;2024-03-02T10:24:35;98205.91;;;11.26;71.58
68859;BME280;55864;49.238;8.092;2024-03-02T10:26:37;98199.41;;;11.36;72.11
68859;BME280;55864;49.238;8.092;2024-03-02T10:28:46;98203.19;;;11.34;70.37
68859;BME280;55864;49.238;8.092;2024-03-02T10:30:47;98202.84;;;11.37;70.37
68859;BME280;55864;49.238;8.092;2024-03-02T10:32:49;98195.34;;;11.49;69.16
68859;BME280;55864;49.238;8.092;2024-03-02T10:34:50;98189.16;;;11.93;69.25
68859;BME280;55864;49.238;8.092;2024-03-02T10:36:50;98191.16;;;12.20;66.86
68859;BME280;55864;49.238;8.092;2024-03-02T10:38:51;98190.50;;;12.04;68.45
68859;BME280;55864;49.238;8.092;2024-03-02T10:40:52;98192.59;;;12.08;68.38
68859;BME280;55864;49.238;8.092;2024-03-02T10:42:54;98190.31;;;12.20;66.17
68859;BME280;55864;49.238;8.092;2024-03-02T10:44:55;98192.63;;;12.44;63.46
68859;BME280;55864;49.238;8.092;2024-03-02T10:46:56;98187.75;;;12.41;64.79